Time;durP1;ratioP1;P1;durP2;ratioP2;P2;SDS_P1;SDS_P2;PMS_P1;PMS_P2;Temp;Humidity;BMP_temperature;BMP_pressure;BME280_temperature;BME280_humidity;BME280_pressure;Samples;Min_cycle;Max_cycle;Signal;HPM_P1;HPM_P2
2023/04/04 00:00:47;;;;;;;0.80;0.73;;;1.10;94.20;;;;;;5104321;28;20450;-80
2023/04/04 00:03:14;;;;;;;1.20;1.00;;;1.10;93.90;;;;;;5105376;28;20545;-80
2023/04/04 00:05:41;;;;;;;2.90;1.00;;;1.10;94.30;;;;;;5096964;28;20459;-79
2023/04/04 00:08:08;;;;;;;1.83;1.00;;;1.10;93.90;;;;;;5102914;28;20486;-80
2023/04/04 00:10:36;;;;;;;1.90;1.00;;;1.10;94.00;;;;;;5101647;28;20951;-80
2023/04/04 00:13:04;;;;;;;1.73;0.70;;;1.10;94.50;;;;;;5105625;28;20454;-80
2023/04/04 00:15:31;;;;;;;1.40;1.30;;;1.10;94.60;;;;;;5099463;28;20462;-79
2023/04/04 00:17:58;;;;;;;1.37;1.00;;;1.10;91.80;;;;;;5104266;28;20457;-79
2023/04/04 00:20:25;;;;;;;1.37;0.83;;;1.10;92.10;;;;;;5096988;28;20451;-79
2023/04/04 00:22:52;;;;;;;0.70;0.57;;;1.10;93.80;;;;;;5094807;28;21128;-79
2023/04/04 00:25:19;;;;;;;2.03;1.37;;;1.00;94.20;;;;;;5100978;28;20515;-79
2023/04/04 00:27:48;;;;;;;2.80;1.50;;;1.00;94.50;;;;;;5104733;28;21033;-80
2023/04/04 00:30:15;;;;;;;1.43;1.00;;;0.90;94.80;;;;;;5102151;28;20872;-80
2023/04/04 00:32:42;;;;;;;1.20;0.90;;;1.00;93.90;;;;;;5101901;28;20443;-79
2023/04/04 00:35:09;;;;;;;1.27;0.93;;;1.00;94.00;;;;;;5098594;28;20451;-80
2023/04/04 00:37:36;;;;;;;2.40;1.10;;;0.90;94.40;;;;;;5106701;28;20495;-80
2023/04/04 00:40:04;;;;;;;1.03;0.90;;;0.80;94.60;;;;;;5098957;28;20903;-80
2023/04/04 00:42:31;;;;;;;1.57;1.10;;;0.80;94.10;;;;;;5102673;28;20497;-80
2023/04/04 00:44:59;;;;;;;1.30;0.80;;;0.90;94.60;;;;;;5103428;28;20828;-80
2023/04/04 00:47:31;;;;;;;4.30;0.90;;;0.90;93.70;;;;;;5094928;28;20472;-80
2023/04/04 00:49:58;;;;;;;2.10;0.87;;;0.90;93.40;;;;;;5106080;28;20457;-80
2023/04/04 00:52:25;;;;;;;2.53;1.87;;;1.00;93.50;;;;;;5103438;28;20535;-80
2023/04/04 00:54:53;;;;;;;0.70;0.60;;;1.00;93.90;;;;;;5105617;28;20442;-79
2023/04/04 00:57:20;;;;;;;4.00;0.93;;;1.00;93.90;;;;;;5105197;28;20462;-80
2023/04/04 00:59:47;;;;;;;3.03;0.90;;;1.00;93.40;;;;;;5102350;28;20462;-80
2023/04/04 01:02:16;;;;;;;3.43;1.00;;;1.00;93.40;;;;;;5098284;28;20486;-80
2023/04/04 01:04:43;;;;;;;1.05;0.90;;;1.00;93.80;;;;;;5103155;28;21078;-80
2023/04/04 01:07:11;;;;;;;2.23;1.50;;;1.00;93.40;;;;;;5099736;28;20260;-80
2023/04/04 01:09:38;;;;;;;2.30;0.87;;;0.90;93.00;;;;;;5099800;28;20443;-80
2023/04/04 01:12:05;;;;;;;2.00;0.97;;;0.90;91.80;;;;;;5106177;28;21193;-80
2023/04/04 01:14:32;;;;;;;1.63;1.53;;;1.00;92.20;;;;;;5107325;28;20820;-80
2023/04/04 01:17:01;;;;;;;1.37;0.90;;;0.90;92.30;;;;;;5099939;28;20447;-79
2023/04/04 01:19:32;;;;;;;3.53;1.20;;;1.00;92.50;;;;;;5105371;28;21082;-80
2023/04/04 01:22:01;;;;;;;13.33;1.40;;;1.00;92.50;;;;;;5103842;28;20499;-81
2023/04/04 01:24:33;;;;;;;1.67;0.83;;;0.90;93.00;;;;;;5107062;28;20454;-80
2023/04/04 01:27:02;;;;;;;2.50;1.10;;;0.80;93.20;;;;;;5102730;28;20555;-80
2023/04/04 01:29:29;;;;;;;3.90;0.80;;;0.80;93.40;;;;;;5100439;28;20496;-80
2023/04/04 01:32:04;;;;;;;1.60;0.80;;;0.80;93.30;;;;;;5105459;28;20449;-79
2023/04/04 01:34:41;;;;;;;0.80;0.80;;;0.80;93.00;;;;;;5103591;28;20458;-80
2023/04/04 01:37:15;;;;;;;1.40;1.17;;;0.80;93.10;;;;;;5109060;28;20446;-79
2023/04/04 01:39:45;;;;;;;1.87;0.83;;;0.80;93.00;;;;;;5105180;28;20459;-81
2023/04/04 01:42:15;;;;;;;1.13;0.70;;;0.80;92.70;;;;;;5103369;28;20443;-81
2023/04/04 01:44:43;;;;;;;1.23;1.03;;;0.80;93.30;;;;;;5099013;28;20504;-81
2023/04/04 01:47:13;;;;;;;3.43;1.20;;;0.80;93.50;;;;;;5107907;28;20446;-81
2023/04/04 01:49:39;;;;;;;2.60;0.73;;;0.80;92.70;;;;;;5093257;28;20835;-80
2023/04/04 01:52:07;;;;;;;3.67;2.42;;;0.80;91.10;;;;;;5094259;28;20456;-80
2023/04/04 01:54:35;;;;;;;1.47;1.13;;;0.80;92.80;;;;;;5106379;28;20201;-79
2023/04/04 01:57:02;;;;;;;1.47;0.93;;;0.80;92.40;;;;;;5103348;28;20466;-80
2023/04/04 01:59:30;;;;;;;2.80;1.80;;;0.80;91.10;;;;;;5107268;28;20442;-80
2023/04/04 02:01:57;;;;;;;3.10;1.13;;;0.90;90.10;;;;;;5107236;28;20594;-81
2023/04/04 02:04:24;;;;;;;1.20;0.83;;;0.80;86.90;;;;;;5104549;28;20458;-81
2023/04/04 02:06:51;;;;;;;3.53;1.00;;;0.90;88.00;;;;;;5101541;28;20453;-80
2023/04/04 02:09:18;;;;;;;2.03;1.20;;;0.80;90.00;;;;;;5103916;28;20478;-80
2023/04/04 02:11:45;;;;;;;2.20;1.33;;;0.80;90.40;;;;;;5107208;28;20461;-80
2023/04/04 02:14:12;;;;;;;1.30;0.83;;;0.70;90.60;;;;;;5106768;28;20450;-80
2023/04/04 02:16:40;;;;;;;1.00;0.90;;;0.70;90.90;;;;;;5106506;28;20466;-79
2023/04/04 02:19:07;;;;;;;1.10;1.00;;;0.70;91.60;;;;;;5103583;28;20492;-80
2023/04/04 02:21:34;;;;;;;0.80;0.70;;;0.70;91.80;;;;;;5103239;28;20463;-80
2023/04/04 02:24:01;;;;;;;1.23;1.00;;;0.80;91.60;;;;;;5103937;28;20470;-80
2023/04/04 02:26:28;;;;;;;1.47;1.00;;;0.80;91.60;;;;;;5100429;28;20692;-80
2023/04/04 02:28:55;;;;;;;2.93;1.23;;;0.70;91.60;;;;;;5100734;28;20478;-81
2023/04/04 02:31:22;;;;;;;2.00;1.37;;;0.70;91.80;;;;;;5101420;28;20466;-80
2023/04/04 02:33:50;;;;;;;2.20;0.90;;;0.70;91.90;;;;;;5098436;28;20446;-80
2023/04/04 02:36:17;;;;;;;3.40;1.80;;;0.70;92.10;;;;;;5100099;28;20556;-80
2023/04/04 02:38:44;;;;;;;1.27;0.90;;;0.70;92.80;;;;;;5100692;28;20463;-81
2023/04/04 02:41:11;;;;;;;2.13;1.80;;;0.70;93.20;;;;;;5106716;28;20450;-80
2023/04/04 02:43:38;;;;;;;1.20;0.93;;;0.70;93.50;;;;;;5100429;28;20443;-80
2023/04/04 02:46:05;;;;;;;1.00;0.90;;;0.70;94.00;;;;;;5099213;28;20464;-80
2023/04/04 02:48:32;;;;;;;2.40;1.10;;;0.70;94.20;;;;;;5099745;28;20522;-80
2023/04/04 02:51:01;;;;;;;3.27;1.70;;;0.60;94.70;;;;;;5097348;28;20476;-80
2023/04/04 02:53:27;;;;;;;2.00;1.80;;;0.60;94.80;;;;;;5105323;28;20451;-80
2023/04/04 02:55:54;;;;;;;4.37;1.47;;;0.50;95.30;;;;;;5106846;28;21019;-80
2023/04/04 02:58:21;;;;;;;1.13;1.03;;;0.50;95.20;;;;;;5102939;28;21239;-80
2023/04/04 03:00:54;;;;;;;1.53;1.10;;;0.60;94.70;;;;;;5099704;28;20468;-80
2023/04/04 03:03:21;;;;;;;1.40;1.10;;;0.50;94.70;;;;;;5100594;28;21021;-80
2023/04/04 03:05:50;;;;;;;3.95;1.33;;;0.60;94.40;;;;;;5095125;28;20447;-80
2023/04/04 03:08:18;;;;;;;1.73;1.43;;;0.60;94.70;;;;;;5107214;28;20220;-80
2023/04/04 03:10:46;;;;;;;2.73;1.30;;;0.60;94.70;;;;;;5103990;28;20458;-80
2023/04/04 03:13:13;;;;;;;1.80;0.90;;;0.60;95.10;;;;;;5107492;28;20449;-80
2023/04/04 03:15:40;;;;;;;4.53;1.20;;;0.60;94.70;;;;;;5106302;28;20523;-80
2023/04/04 03:18:07;;;;;;;6.93;0.90;;;0.70;94.60;;;;;;5101398;28;20280;-80
2023/04/04 03:20:34;;;;;;;4.72;1.00;;;0.60;94.30;;;;;;5104340;28;20661;-81
2023/04/04 03:23:02;;;;;;;1.27;1.10;;;0.60;94.40;;;;;;5101914;28;20201;-81
2023/04/04 03:25:30;;;;;;;1.63;1.53;;;0.60;94.60;;;;;;5103379;28;20486;-79
2023/04/04 03:27:57;;;;;;;2.57;1.60;;;0.50;94.60;;;;;;5110062;28;20539;-80
2023/04/04 03:30:24;;;;;;;2.00;1.53;;;0.50;95.20;;;;;;5108363;28;20508;-80
2023/04/04 03:32:52;;;;;;;1.47;1.33;;;0.50;95.30;;;;;;5112655;28;21185;-80
2023/04/04 03:35:19;;;;;;;3.07;1.43;;;0.50;95.40;;;;;;5111936;28;20975;-80
2023/04/04 03:37:46;;;;;;;1.00;0.90;;;0.50;94.60;;;;;;5108695;28;20447;-80
2023/04/04 03:40:13;;;;;;;1.50;1.33;;;0.50;94.10;;;;;;5100215;28;20960;-80
2023/04/04 03:42:42;;;;;;;3.53;0.80;;;0.40;94.10;;;;;;5106711;28;20509;-80
2023/04/04 03:45:10;;;;;;;1.95;1.27;;;0.40;95.10;;;;;;5104380;28;20940;-81
2023/04/04 03:47:37;;;;;;;5.13;1.70;;;0.40;95.10;;;;;;5102730;28;20203;-79
2023/04/04 03:50:04;;;;;;;4.30;1.47;;;0.40;94.60;;;;;;5103643;28;20496;-80
2023/04/04 03:52:31;;;;;;;2.03;0.90;;;0.50;94.70;;;;;;5101533;28;20442;-80
2023/04/04 03:54:58;;;;;;;1.20;1.10;;;0.40;94.70;;;;;;5106619;28;20539;-81
2023/04/04 03:57:26;;;;;;;1.17;1.07;;;0.40;95.40;;;;;;5105812;28;20450;-80
2023/04/04 03:59:55;;;;;;;1.03;0.93;;;0.40;95.70;;;;;;5100949;28;20488;-81
2023/04/04 04:02:22;;;;;;;1.33;1.07;;;0.30;96.00;;;;;;5102817;28;20463;-81
2023/04/04 04:04:49;;;;;;;1.77;1.20;;;0.30;95.20;;;;;;5099015;28;20820;-79
2023/04/04 04:07:16;;;;;;;1.73;1.47;;;0.30;95.50;;;;;;5102511;28;20515;-80
2023/04/04 04:09:43;;;;;;;3.17;1.03;;;0.40;95.20;;;;;;5104448;28;20578;-80
2023/04/04 04:12:10;;;;;;;2.03;0.90;;;0.40;95.50;;;;;;5102220;28;20447;-79
2023/04/04 04:14:37;;;;;;;2.13;1.63;;;0.30;95.20;;;;;;5103107;28;20503;-80
2023/04/04 04:17:05;;;;;;;1.15;0.80;;;0.30;95.80;;;;;;5103261;28;20458;-80
2023/04/04 04:19:32;;;;;;;2.13;1.10;;;0.30;95.70;;;;;;5102353;28;20227;-80
2023/04/04 04:21:59;;;;;;;3.35;0.95;;;0.30;95.30;;;;;;5102853;28;20199;-79
2023/04/04 04:24:26;;;;;;;4.57;1.20;;;0.30;94.40;;;;;;5105909;28;20192;-79
2023/04/04 04:26:53;;;;;;;1.70;1.05;;;0.30;95.00;;;;;;5104835;28;20864;-79
2023/04/04 04:29:20;;;;;;;2.25;1.00;;;0.30;94.20;;;;;;5106752;28;20278;-79
2023/04/04 04:31:47;;;;;;;2.00;1.05;;;0.20;94.00;;;;;;5104846;28;20204;-80
2023/04/04 04:34:16;;;;;;;2.85;1.30;;;0.20;94.20;;;;;;5106360;28;20268;-80
2023/04/04 04:36:43;;;;;;;2.50;1.07;;;0.20;94.20;;;;;;5094742;28;20613;-79
2023/04/04 04:39:10;;;;;;;2.00;1.47;;;0.20;94.60;;;;;;5102872;28;21329;-80
2023/04/04 04:41:37;;;;;;;3.90;1.10;;;0.20;94.60;;;;;;5106065;28;20542;-80
2023/04/04 04:44:04;;;;;;;2.72;1.25;;;0.20;94.50;;;;;;5096956;28;20457;-79
2023/04/04 04:46:31;;;;;;;3.38;0.90;;;0.10;94.70;;;;;;5104331;28;20209;-80
2023/04/04 04:48:58;;;;;;;0.98;0.80;;;0.10;93.40;;;;;;5110301;28;20937;-80
2023/04/04 04:51:27;;;;;;;1.60;0.80;;;0.10;94.00;;;;;;5106835;28;20242;-80
2023/04/04 04:53:54;;;;;;;1.63;1.10;;;0.10;93.50;;;;;;5108114;28;20767;-80
2023/04/04 04:56:21;;;;;;;2.80;1.25;;;0.10;93.30;;;;;;5109727;28;20201;-79
2023/04/04 04:58:49;;;;;;;5.65;1.10;;;0.10;93.20;;;;;;5110698;28;20221;-80
2023/04/04 05:01:17;;;;;;;1.98;1.00;;;0.10;93.10;;;;;;5106064;28;20243;-80
2023/04/04 05:03:44;;;;;;;1.75;1.33;;;0.10;92.70;;;;;;5098587;28;20217;-80
2023/04/04 05:06:11;;;;;;;2.15;1.10;;;0.10;92.90;;;;;;5095874;28;20205;-78
2023/04/04 05:08:39;;;;;;;2.22;1.60;;;0.20;93.10;;;;;;5100331;28;20263;-80
2023/04/04 05:11:06;;;;;;;0.90;0.90;;;0.10;93.40;;;;;;5105212;28;20722;-78
2023/04/04 05:13:33;;;;;;;1.43;0.87;;;0.20;92.50;;;;;;5098038;28;20205;-80
2023/04/04 05:16:00;;;;;;;1.38;1.25;;;0.20;91.90;;;;;;5100571;28;20454;-78
2023/04/04 05:18:27;;;;;;;0.97;0.80;;;0.20;91.90;;;;;;5098634;28;20621;-80
2023/04/04 05:20:55;;;;;;;2.55;1.58;;;0.30;91.10;;;;;;5101896;28;21117;-80
2023/04/04 05:23:22;;;;;;;1.42;0.95;;;0.30;91.20;;;;;;5101840;28;20205;-80
2023/04/04 05:25:52;;;;;;;1.30;1.10;;;0.30;90.90;;;;;;5106124;28;20870;-79
2023/04/04 05:28:19;;;;;;;1.00;1.00;;;0.50;90.90;;;;;;5109275;28;20481;-79
2023/04/04 05:30:46;;;;;;;1.13;1.03;;;0.60;90.20;;;;;;5114741;28;20522;-80
2023/04/04 05:33:13;;;;;;;1.43;0.90;;;0.70;89.40;;;;;;5111716;28;21019;-79
2023/04/04 05:35:40;;;;;;;1.60;1.50;;;0.60;87.50;;;;;;5099434;28;20455;-80
2023/04/04 05:38:07;;;;;;;3.10;1.00;;;0.80;89.50;;;;;;5105316;28;20521;-79
2023/04/04 05:40:34;;;;;;;0.87;0.87;;;0.80;90.50;;;;;;5095883;28;20529;-80
2023/04/04 05:43:03;;;;;;;1.27;1.17;;;0.80;90.30;;;;;;5091367;28;21046;-79
2023/04/04 05:45:30;;;;;;;5.30;1.20;;;0.80;90.10;;;;;;5107208;28;20467;-79
2023/04/04 05:47:57;;;;;;;2.03;1.10;;;0.90;90.60;;;;;;5098598;28;20465;-79
2023/04/04 05:50:24;;;;;;;1.50;1.00;;;0.90;90.90;;;;;;5088340;28;20510;-80
2023/04/04 05:52:55;;;;;;;1.23;0.90;;;1.10;91.20;;;;;;5100268;28;20536;-80
2023/04/04 05:55:23;;;;;;;2.03;0.80;;;1.20;88.30;;;;;;5108098;28;20816;-79
2023/04/04 05:57:50;;;;;;;1.20;1.00;;;1.10;89.40;;;;;;5104449;28;20451;-80
2023/04/04 06:00:19;;;;;;;1.00;0.83;;;1.30;90.10;;;;;;5098286;28;21012;-79
2023/04/04 06:02:47;;;;;;;1.60;1.50;;;1.40;89.60;;;;;;5101315;28;20454;-80
2023/04/04 06:05:14;;;;;;;3.83;1.90;;;1.40;87.40;;;;;;5095123;28;20493;-80
2023/04/04 06:07:41;;;;;;;1.23;0.80;;;1.40;85.20;;;;;;5099041;28;20455;-80
2023/04/04 06:10:09;;;;;;;2.43;1.00;;;1.40;84.10;;;;;;5107487;28;20732;-79
2023/04/04 06:12:36;;;;;;;1.90;0.90;;;1.30;87.70;;;;;;5108423;28;20458;-79
2023/04/04 06:15:03;;;;;;;2.10;1.20;;;1.40;86.30;;;;;;5098548;28;20508;-78
2023/04/04 06:17:31;;;;;;;1.90;0.90;;;1.40;83.90;;;;;;5097548;28;20471;-79
2023/04/04 06:19:58;;;;;;;2.60;0.67;;;1.50;81.00;;;;;;5096315;28;20463;-79
2023/04/04 06:22:25;;;;;;;2.60;1.27;;;1.60;82.50;;;;;;5097468;28;20498;-79
2023/04/04 06:24:52;;;;;;;2.97;1.60;;;1.80;82.40;;;;;;5107668;28;20447;-79
2023/04/04 06:27:19;;;;;;;2.40;2.00;;;2.10;83.00;;;;;;5097467;28;21236;-79
2023/04/04 06:29:46;;;;;;;1.90;1.37;;;2.20;77.40;;;;;;5101874;28;20505;-82
2023/04/04 06:32:14;;;;;;;2.00;0.90;;;2.30;74.70;;;;;;5102634;28;20453;-80
2023/04/04 06:34:42;;;;;;;2.03;0.90;;;2.20;74.50;;;;;;5099982;28;20452;-80
2023/04/04 06:37:09;;;;;;;1.83;1.20;;;2.20;79.30;;;;;;5099516;28;20516;-80
2023/04/04 06:39:36;;;;;;;1.80;1.20;;;2.00;77.40;;;;;;5098880;28;20525;-86
2023/04/04 06:42:03;;;;;;;1.50;1.00;;;1.80;74.80;;;;;;5101950;28;20507;-78
2023/04/04 06:44:30;;;;;;;1.03;0.90;;;2.00;77.90;;;;;;5098331;28;20451;-77
2023/04/04 06:46:57;;;;;;;1.03;0.70;;;2.10;77.50;;;;;;5107508;28;21065;-80
2023/04/04 06:49:24;;;;;;;0.77;0.60;;;2.00;75.60;;;;;;5106569;28;20535;-80
2023/04/04 06:51:53;;;;;;;2.03;1.23;;;1.90;73.60;;;;;;5095699;28;20487;-78
2023/04/04 06:54:20;;;;;;;1.00;0.73;;;2.00;74.60;;;;;;5098622;28;20516;-78
2023/04/04 06:56:47;;;;;;;1.03;0.80;;;2.20;74.10;;;;;;5094965;28;20455;-79
2023/04/04 06:59:14;;;;;;;2.47;1.83;;;2.20;71.70;;;;;;5100291;28;20477;-79
2023/04/04 07:01:41;;;;;;;2.20;1.10;;;2.30;71.90;;;;;;5100147;28;20534;-77
2023/04/04 07:04:08;;;;;;;2.03;0.77;;;2.30;74.50;;;;;;5104694;28;20447;-80
2023/04/04 07:06:35;;;;;;;6.13;2.03;;;2.50;76.70;;;;;;5100753;28;20505;-87
2023/04/04 07:09:03;;;;;;;1.33;0.80;;;2.90;76.50;;;;;;5090546;28;20532;-78
2023/04/04 07:11:30;;;;;;;3.40;1.13;;;2.90;67.40;;;;;;5098521;28;20496;-78
2023/04/04 07:13:57;;;;;;;1.00;0.60;;;2.80;64.60;;;;;;5104039;28;20471;-79
2023/04/04 07:16:24;;;;;;;0.93;0.93;;;2.90;63.80;;;;;;5102991;28;20508;-78
2023/04/04 07:18:51;;;;;;;1.50;0.93;;;3.00;61.60;;;;;;5104822;28;20455;-79
2023/04/04 07:21:19;;;;;;;2.83;0.93;;;3.00;63.50;;;;;;5108741;28;20516;-77
2023/04/04 07:23:46;;;;;;;1.00;0.70;;;3.00;59.90;;;;;;5102104;28;20511;-77
2023/04/04 07:26:14;;;;;;;0.77;0.70;;;3.10;56.10;;;;;;5104786;28;20454;-79
2023/04/04 07:28:41;;;;;;;2.20;0.90;;;3.30;58.00;;;;;;5111820;28;20516;-78
2023/04/04 07:31:08;;;;;;;1.83;1.07;;;3.40;58.40;;;;;;5094107;28;20486;-78
2023/04/04 07:33:36;;;;;;;1.10;1.00;;;3.30;56.70;;;;;;5104580;28;20446;-78
2023/04/04 07:36:03;;;;;;;1.47;0.70;;;3.30;59.20;;;;;;5103005;28;20511;-77
2023/04/04 07:38:30;;;;;;;1.87;1.00;;;2.90;61.30;;;;;;5097766;28;20524;-78
2023/04/04 07:40:57;;;;;;;2.13;0.90;;;2.60;60.80;;;;;;5111520;27;20453;-78
2023/04/04 07:43:26;;;;;;;1.20;0.90;;;2.80;60.90;;;;;;5108948;27;20467;-79
2023/04/04 07:45:54;;;;;;;1.10;0.80;;;2.60;61.00;;;;;;5101950;28;20475;-79
2023/04/04 07:48:21;;;;;;;1.93;1.00;;;2.80;63.50;;;;;;5100653;28;20929;-78
2023/04/04 07:50:48;;;;;;;1.80;0.80;;;2.90;64.00;;;;;;5105640;28;20482;-79
2023/04/04 07:53:15;;;;;;;2.80;1.30;;;3.10;63.20;;;;;;5100331;28;20454;-80
2023/04/04 07:55:42;;;;;;;1.53;1.17;;;3.10;63.60;;;;;;5105463;28;20515;-80
2023/04/04 07:58:09;;;;;;;1.17;0.80;;;2.90;64.20;;;;;;5105932;28;20512;-79
2023/04/04 08:00:37;;;;;;;2.20;1.60;;;3.00;61.20;;;;;;5105355;28;20470;-79
2023/04/04 08:03:05;;;;;;;2.00;1.10;;;3.10;61.90;;;;;;5100421;28;20463;-80
2023/04/04 08:05:32;;;;;;;1.63;1.03;;;3.20;57.80;;;;;;5098953;28;20604;-80
2023/04/04 08:07:59;;;;;;;2.20;1.00;;;3.30;57.20;;;;;;5102194;28;20450;-78
2023/04/04 08:10:26;;;;;;;2.20;0.87;;;3.10;59.20;;;;;;5096066;28;20879;-79
2023/04/04 08:12:53;;;;;;;1.27;1.00;;;3.00;58.10;;;;;;5105598;28;20463;-78
2023/04/04 08:15:20;;;;;;;1.90;1.10;;;2.80;58.40;;;;;;5102886;28;20470;-79
2023/04/04 08:17:48;;;;;;;3.07;0.70;;;2.90;58.10;;;;;;5106658;28;20512;-80
2023/04/04 08:20:16;;;;;;;2.63;0.77;;;2.90;58.40;;;;;;5102755;27;20962;-81
2023/04/04 08:22:43;;;;;;;1.23;0.80;;;3.10;58.30;;;;;;5102248;28;20475;-78
2023/04/04 08:25:10;;;;;;;1.10;1.00;;;3.30;60.20;;;;;;5110052;28;20857;-80
2023/04/04 08:27:42;;;;;;;1.20;1.10;;;3.00;57.80;;;;;;5095753;28;20486;-81
2023/04/04 08:30:10;;;;;;;3.47;1.57;;;2.80;59.90;;;;;;5105590;28;20498;-79
2023/04/04 08:32:37;;;;;;;1.00;0.70;;;3.00;57.20;;;;;;5108369;28;20450;-80
2023/04/04 08:35:06;;;;;;;1.70;0.70;;;2.90;55.90;;;;;;5109454;28;20539;-77
2023/04/04 08:37:34;;;;;;;1.17;1.07;;;3.30;60.00;;;;;;5109205;28;20853;-77
2023/04/04 08:40:01;;;;;;;1.27;0.90;;;3.50;58.10;;;;;;5106704;28;20486;-78
2023/04/04 08:42:31;;;;;;;1.30;1.00;;;3.70;58.40;;;;;;5108467;28;20462;-76
2023/04/04 08:45:02;;;;;;;1.67;0.80;;;3.40;57.00;;;;;;5107187;28;20824;-76
2023/04/04 08:47:31;;;;;;;3.70;1.10;;;3.40;57.90;;;;;;5102783;28;20458;-77
2023/04/04 08:50:00;;;;;;;0.97;0.87;;;3.10;59.50;;;;;;5100470;28;20543;-78
2023/04/04 08:52:30;;;;;;;0.97;0.97;;;3.10;59.30;;;;;;5106645;28;20458;-78
2023/04/04 08:54:58;;;;;;;2.33;0.90;;;3.00;57.70;;;;;;5100857;28;20458;-80
2023/04/04 08:57:25;;;;;;;2.07;1.20;;;2.90;58.40;;;;;;5099841;28;20442;-76
2023/04/04 08:59:52;;;;;;;0.70;0.70;;;3.00;58.70;;;;;;5109476;28;20577;-80
2023/04/04 09:02:26;;;;;;;1.40;0.90;;;3.10;61.20;;;;;;5109495;28;20469;-78
2023/04/04 09:04:54;;;;;;;1.03;0.93;;;3.30;60.10;;;;;;5104485;28;20462;-78
2023/04/04 09:07:21;;;;;;;2.43;0.73;;;3.50;63.80;;;;;;5106161;28;20458;-76
2023/04/04 09:09:52;;;;;;;1.17;0.70;;;3.40;57.50;;;;;;5108403;28;20513;-76
2023/04/04 09:12:21;;;;;;;5.60;1.53;;;3.40;58.60;;;;;;5101018;28;21124;-77
2023/04/04 09:14:50;;;;;;;1.33;1.20;;;3.60;60.00;;;;;;5106610;28;20892;-75
2023/04/04 09:17:18;;;;;;;1.43;0.97;;;3.50;58.70;;;;;;5106727;28;20533;-75
2023/04/04 09:19:45;;;;;;;2.30;0.90;;;3.40;63.40;;;;;;5112465;28;20457;-77
2023/04/04 09:22:12;;;;;;;1.00;0.87;;;3.40;61.80;;;;;;5111916;28;20472;-76
2023/04/04 09:24:40;;;;;;;0.70;0.70;;;3.20;61.90;;;;;;5105466;28;20927;-75
2023/04/04 09:27:10;;;;;;;1.30;0.90;;;2.80;59.50;;;;;;5112424;28;20490;-76
2023/04/04 09:29:38;;;;;;;2.70;0.90;;;3.20;59.60;;;;;;5107742;28;20492;-77
2023/04/04 09:32:08;;;;;;;1.77;1.10;;;3.50;61.80;;;;;;5102504;28;20810;-76
2023/04/04 09:34:36;;;;;;;1.63;1.10;;;3.80;59.60;;;;;;5106782;28;20446;-77
2023/04/04 09:37:04;;;;;;;2.77;1.40;;;4.50;59.80;;;;;;5103603;28;20512;-78
2023/04/04 09:39:32;;;;;;;5.90;1.90;;;5.00;58.30;;;;;;5108245;28;20455;-77
2023/04/04 09:42:00;;;;;;;1.13;0.70;;;5.10;55.70;;;;;;5105342;28;20455;-78
2023/04/04 09:44:32;;;;;;;1.40;1.00;;;4.80;53.60;;;;;;5108862;28;20450;-76
2023/04/04 09:47:21;;;;;;;1.50;0.90;;;4.70;52.80;;;;;;5099308;28;20487;-78
2023/04/04 09:49:49;;;;;;;1.40;1.13;;;4.60;56.00;;;;;;5106313;28;20459;-77
2023/04/04 09:52:19;;;;;;;2.83;1.10;;;3.90;55.50;;;;;;5104915;28;20479;-77
2023/04/04 09:54:54;;;;;;;2.07;1.00;;;4.40;58.90;;;;;;5105404;28;20946;-77
2023/04/04 09:57:21;;;;;;;2.23;0.80;;;4.00;54.80;;;;;;5101587;28;20511;-79
2023/04/04 09:59:50;;;;;;;1.57;1.17;;;4.10;57.20;;;;;;5107777;28;20511;-77
2023/04/04 10:02:17;;;;;;;2.17;1.00;;;4.20;56.30;;;;;;5103428;28;20486;-78
2023/04/04 10:04:44;;;;;;;1.30;0.93;;;4.20;57.20;;;;;;5107459;28;20819;-76
2023/04/04 10:07:13;;;;;;;2.23;0.90;;;4.40;57.50;;;;;;5103181;28;21005;-78
2023/04/04 10:09:40;;;;;;;1.57;1.10;;;3.90;58.10;;;;;;5094184;28;20473;-77
2023/04/04 10:12:11;;;;;;;2.30;1.07;;;3.90;59.80;;;;;;5100878;28;21005;-77
2023/04/04 10:14:38;;;;;;;2.90;1.50;;;3.90;59.30;;;;;;5104811;28;21022;-77
2023/04/04 10:17:10;;;;;;;9.40;1.40;;;4.00;56.20;;;;;;5104461;28;20447;-77
2023/04/04 10:19:38;;;;;;;2.97;1.80;;;4.40;57.60;;;;;;5106885;28;20446;-77
2023/04/04 10:22:05;;;;;;;3.73;2.33;;;5.00;58.70;;;;;;5097181;28;20450;-78
2023/04/04 10:24:32;;;;;;;1.17;1.00;;;5.40;56.30;;;;;;5104410;28;20656;-77
2023/04/04 10:27:00;;;;;;;1.47;0.90;;;5.10;54.70;;;;;;5108168;28;20990;-78
2023/04/04 10:29:27;;;;;;;1.50;1.10;;;4.90;52.70;;;;;;5107268;27;20477;-77
2023/04/04 10:32:02;;;;;;;1.10;1.00;;;4.80;53.60;;;;;;5105259;28;20482;-77
2023/04/04 10:34:38;;;;;;;1.60;1.13;;;4.70;55.40;;;;;;5105622;28;20439;-78
2023/04/04 10:37:09;;;;;;;1.10;0.83;;;4.40;53.70;;;;;;5100187;28;20451;-81
2023/04/04 10:39:41;;;;;;;1.17;0.90;;;4.20;53.60;;;;;;5103953;28;21096;-78
2023/04/04 10:42:10;;;;;;;1.67;1.00;;;4.20;53.50;;;;;;5105607;28;20495;-77
2023/04/04 10:44:39;;;;;;;1.83;1.30;;;4.10;55.70;;;;;;5095009;28;20504;-79
2023/04/04 10:47:20;;;;;;;1.10;1.00;;;4.30;57.80;;;;;;5102203;28;20531;-77
2023/04/04 10:49:50;;;;;;;2.40;1.20;;;4.20;57.00;;;;;;5108494;28;20457;-76
2023/04/04 10:52:18;;;;;;;3.63;2.03;;;3.90;56.00;;;;;;5106361;28;20489;-78
2023/04/04 10:54:47;;;;;;;3.80;2.20;;;4.00;55.00;;;;;;5107566;28;20849;-78
2023/04/04 10:57:14;;;;;;;1.50;1.40;;;4.60;55.10;;;;;;5104419;28;20542;-77
2023/04/04 10:59:57;;;;;;;1.70;1.00;;;5.30;57.10;;;;;;5107600;28;20484;-79
2023/04/04 11:02:46;;;;;;;1.90;1.30;;;5.80;53.40;;;;;;5102380;28;20458;-78
2023/04/04 11:05:18;;;;;;;3.40;2.33;;;6.40;52.20;;;;;;5097402;28;20447;-77
2023/04/04 11:07:47;;;;;;;1.10;0.90;;;6.60;54.00;;;;;;5104993;28;20862;-78
2023/04/04 11:10:16;;;;;;;2.40;1.00;;;6.60;50.70;;;;;;5100719;28;20448;-80
2023/04/04 11:12:45;;;;;;;2.23;2.03;;;6.70;49.70;;;;;;5107548;28;20462;-77
2023/04/04 11:15:13;;;;;;;4.63;2.30;;;6.30;50.80;;;;;;5109494;28;21032;-77
2023/04/04 11:18:05;;;;;;;1.77;1.63;;;5.90;49.20;;;;;;5101930;28;20465;-78
2023/04/04 11:20:37;;;;;;;2.10;1.10;;;6.10;52.30;;;;;;5102629;28;20462;-79
2023/04/04 11:23:07;;;;;;;2.60;1.37;;;5.90;54.20;;;;;;5102408;28;20438;-78
2023/04/04 11:25:52;;;;;;;1.07;0.97;;;5.10;52.50;;;;;;5106123;28;20458;-78
2023/04/04 11:28:44;;;;;;;1.10;0.80;;;4.70;50.90;;;;;;5096572;28;20506;-77
2023/04/04 11:31:26;;;;;;;2.20;1.00;;;4.70;52.40;;;;;;5105386;28;21078;-78
2023/04/04 11:34:02;;;;;;;3.80;1.00;;;4.70;51.90;;;;;;5104574;28;20443;-78
2023/04/04 11:36:51;;;;;;;1.60;1.20;;;5.10;53.80;;;;;;5098457;28;20921;-78
2023/04/04 11:39:26;;;;;;;2.20;1.07;;;5.20;53.90;;;;;;5104799;28;20470;-78
2023/04/04 11:41:56;;;;;;;1.13;0.80;;;5.80;55.10;;;;;;5103687;28;20453;-78
2023/04/04 11:44:26;;;;;;;2.13;1.50;;;6.20;52.10;;;;;;5100479;28;20458;-81
2023/04/04 11:46:56;;;;;;;2.37;1.13;;;6.50;53.80;;;;;;5100479;28;20463;-78
2023/04/04 11:49:28;;;;;;;2.57;2.10;;;6.70;52.20;;;;;;5106560;28;20439;-78
2023/04/04 11:51:57;;;;;;;1.20;1.10;;;7.00;53.90;;;;;;5100514;28;21077;-80
2023/04/04 11:54:24;;;;;;;2.07;0.90;;;6.20;54.30;;;;;;5092833;28;20546;-78
2023/04/04 11:56:51;;;;;;;6.50;1.10;;;5.90;53.40;;;;;;5093798;28;20454;-78
2023/04/04 11:59:19;;;;;;;2.27;1.50;;;6.00;54.00;;;;;;5100331;28;20467;-78
2023/04/04 12:01:47;;;;;;;1.60;0.80;;;5.60;54.10;;;;;;5096852;28;20521;-77
2023/04/04 12:04:17;;;;;;;1.20;1.10;;;5.20;52.50;;;;;;5097346;28;20450;-77
2023/04/04 12:06:44;;;;;;;1.20;0.80;;;5.00;53.70;;;;;;5099420;28;20595;-78
2023/04/04 12:09:16;;;;;;;4.10;0.90;;;4.80;53.50;;;;;;5100117;28;20852;-78
2023/04/04 12:11:45;;;;;;;1.67;1.27;;;4.70;52.40;;;;;;5102830;28;20483;-78
2023/04/04 12:14:17;;;;;;;2.07;1.20;;;4.50;54.00;;;;;;5101122;28;20464;-77
2023/04/04 12:16:46;;;;;;;1.47;1.10;;;4.30;54.50;;;;;;5095346;28;20533;-77
2023/04/04 12:19:15;;;;;;;1.10;1.00;;;4.60;54.70;;;;;;5097154;28;20602;-78
2023/04/04 12:21:42;;;;;;;1.00;1.00;;;5.10;51.50;;;;;;5101561;28;20508;-78
2023/04/04 12:24:09;;;;;;;1.77;0.90;;;5.90;52.30;;;;;;5100221;28;20459;-77
2023/04/04 12:26:40;;;;;;;1.27;0.80;;;6.50;50.90;;;;;;5096137;28;20486;-78
2023/04/04 12:29:08;;;;;;;2.73;1.13;;;6.70;46.20;;;;;;5094092;28;20446;-81
2023/04/04 12:31:36;;;;;;;1.83;0.90;;;6.80;48.50;;;;;;5094907;28;20543;-77
2023/04/04 12:34:04;;;;;;;2.83;1.17;;;6.80;53.50;;;;;;5095844;28;20479;-78
2023/04/04 12:36:32;;;;;;;2.43;1.10;;;6.70;51.40;;;;;;5097548;28;20457;-77
2023/04/04 12:39:01;;;;;;;2.23;1.03;;;5.90;50.10;;;;;;5101390;28;20490;-77
2023/04/04 12:41:28;;;;;;;2.70;1.50;;;5.50;49.40;;;;;;5094360;28;20460;-79
2023/04/04 12:44:04;;;;;;;2.20;1.40;;;5.50;53.90;;;;;;5097370;28;20958;-77
2023/04/04 12:46:38;;;;;;;1.97;1.27;;;5.40;51.50;;;;;;5099293;28;20458;-78
2023/04/04 12:49:08;;;;;;;1.60;1.20;;;5.00;54.70;;;;;;5099098;28;21078;-77
2023/04/04 12:51:37;;;;;;;2.13;1.77;;;4.80;55.50;;;;;;5091024;28;20478;-78
2023/04/04 12:54:05;;;;;;;6.40;1.73;;;4.70;57.00;;;;;;5095523;28;20450;-78
2023/04/04 12:56:32;;;;;;;2.63;1.10;;;4.70;54.60;;;;;;5101242;28;20545;-77
2023/04/04 12:59:04;;;;;;;2.70;1.30;;;5.30;58.20;;;;;;5105808;28;20590;-78
2023/04/04 13:01:32;;;;;;;3.13;1.30;;;5.50;51.10;;;;;;5101006;28;20515;-78
2023/04/04 13:04:03;;;;;;;1.67;1.00;;;6.10;52.20;;;;;;5097792;28;20817;-78